createdAt,value
2017-04-25T00:00:23.502Z,0
2017-04-25T00:01:33.888Z,0
2017-04-25T00:02:44.581Z,0
2017-04-25T00:03:54.973Z,0
2017-04-25T00:05:05.053Z,0
2017-04-25T00:06:14.796Z,0
2017-04-25T00:07:24.864Z,0
2017-04-25T00:08:35.179Z,0
2017-04-25T00:09:45.553Z,0
2017-04-25T00:10:55.617Z,0
2017-04-25T00:12:05.684Z,0
2017-04-25T00:13:16.068Z,0
2017-04-25T00:14:26.768Z,0
2017-04-25T00:15:37.151Z,0
2017-04-25T00:16:47.545Z,0
2017-04-25T00:17:57.617Z,0
2017-04-25T00:19:08.003Z,0
2017-04-25T00:20:18.324Z,0
2017-04-25T00:21:28.716Z,0
2017-04-25T00:22:39.111Z,0
2017-04-25T00:23:49.493Z,0
2017-04-25T00:24:59.559Z,0
2017-04-25T00:26:10.191Z,0
2017-04-25T00:27:19.954Z,0
2017-04-25T00:28:30.021Z,0
2017-04-25T00:29:40.404Z,0
2017-04-25T00:30:50.815Z,0
2017-04-25T00:32:01.532Z,0
2017-04-25T00:33:11.635Z,0
2017-04-25T00:34:22.021Z,0
2017-04-25T00:35:32.083Z,0
2017-04-25T00:36:42.143Z,0
2017-04-25T00:37:52.460Z,0
2017-04-25T00:39:02.844Z,0
2017-04-25T00:40:13.225Z,0
2017-04-25T00:41:23.284Z,0
2017-04-25T00:42:33.361Z,0
2017-04-25T00:43:44.060Z,0
2017-04-25T00:44:53.812Z,0
2017-04-25T00:46:04.191Z,0
2017-04-25T00:47:14.578Z,0
2017-04-25T00:48:24.977Z,0
2017-04-25T00:49:35.611Z,0
2017-04-25T00:50:45.353Z,0
2017-04-25T00:51:55.729Z,0
2017-04-25T00:53:05.811Z,0
2017-04-25T00:54:15.880Z,0
2017-04-25T00:55:26.515Z,0
2017-04-25T00:56:36.585Z,0
2017-04-25T00:57:46.972Z,0
2017-04-25T00:58:57.358Z,0
2017-04-25T01:00:07.429Z,0
2017-04-25T01:01:18.118Z,0
2017-04-25T01:02:28.503Z,0
2017-04-25T01:03:38.887Z,0
2017-04-25T01:04:49.269Z,0
2017-04-25T01:05:59.658Z,0
2017-04-25T01:07:10.343Z,0
2017-04-25T01:08:20.724Z,0
2017-04-25T01:09:30.796Z,0
2017-04-25T01:10:40.858Z,0
2017-04-25T01:11:51.249Z,0
2017-04-25T01:13:01.890Z,0
2017-04-25T01:14:12.276Z,0
2017-04-25T01:15:22.666Z,0
2017-04-25T01:16:33.042Z,0
2017-04-25T01:17:43.430Z,0
2017-04-25T01:18:54.066Z,0
2017-04-25T01:20:04.134Z,0
2017-04-25T01:21:14.513Z,0
2017-04-25T01:22:24.898Z,0
2017-04-25T01:23:34.960Z,0
2017-04-25T01:24:45.286Z,0
2017-04-25T01:25:55.345Z,0
2017-04-25T01:27:05.442Z,0
2017-04-25T01:28:15.823Z,0
2017-04-25T01:29:25.881Z,0
2017-04-25T01:30:36.505Z,0
2017-04-25T01:31:46.253Z,0
2017-04-25T01:32:56.643Z,0
2017-04-25T01:34:07.019Z,0
2017-04-25T01:35:17.397Z,0
2017-04-25T01:36:27.713Z,0
2017-04-25T01:37:38.093Z,0
2017-04-25T01:38:48.161Z,0
2017-04-25T01:39:58.547Z,0
2017-04-25T01:41:08.934Z,0
2017-04-25T01:42:19.557Z,0
2017-04-25T01:43:29.627Z,0
2017-04-25T01:44:40.007Z,0
2017-04-25T01:45:50.391Z,0
2017-04-25T01:47:00.773Z,0
2017-04-25T01:48:11.454Z,0
2017-04-25T01:49:21.838Z,0
2017-04-25T01:50:32.226Z,0
2017-04-25T01:51:42.618Z,0
2017-04-25T01:52:52.677Z,0
2017-04-25T01:54:02.985Z,0
2017-04-25T01:55:13.382Z,0
2017-04-25T01:56:23.451Z,0
2017-04-25T01:57:33.827Z,0
2017-04-25T01:58:44.210Z,0
2017-04-25T01:59:54.853Z,0
2017-04-25T02:01:04.918Z,0
2017-04-25T02:02:15.293Z,0
2017-04-25T02:03:25.362Z,0
2017-04-25T02:04:35.759Z,0
2017-04-25T02:05:46.383Z,0
2017-04-25T02:06:56.469Z,0
2017-04-25T02:08:06.855Z,0
2017-04-25T02:09:17.237Z,0
2017-04-25T02:10:26.985Z,0
2017-04-25T02:11:37.296Z,0
2017-04-25T02:12:47.365Z,0
2017-04-25T02:13:57.433Z,0
2017-04-25T02:15:07.806Z,0
2017-04-25T02:16:18.186Z,0
2017-04-25T02:17:28.817Z,0
2017-04-25T02:18:39.216Z,0
2017-04-25T02:19:49.272Z,0
2017-04-25T02:20:59.643Z,0
2017-04-25T02:22:10.033Z,0
2017-04-25T02:23:20.683Z,0
2017-04-25T02:24:31.070Z,0
2017-04-25T02:25:41.455Z,0
2017-04-25T02:26:51.196Z,0
2017-04-25T02:28:01.259Z,0
2017-04-25T02:29:11.894Z,0
2017-04-25T02:30:22.269Z,0
2017-04-25T02:31:32.012Z,0
2017-04-25T02:32:42.402Z,0
2017-04-25T02:33:52.780Z,0
2017-04-25T02:35:03.417Z,0
2017-04-25T02:36:13.163Z,0
2017-04-25T02:37:23.542Z,0
2017-04-25T02:38:33.608Z,0
2017-04-25T02:39:43.984Z,0
2017-04-25T02:40:54.670Z,0
2017-04-25T02:42:05.055Z,0
2017-04-25T02:43:15.118Z,0
2017-04-25T02:44:25.510Z,0
2017-04-25T02:45:35.585Z,0
2017-04-25T02:46:46.212Z,0
2017-04-25T02:47:56.282Z,0
2017-04-25T02:49:06.672Z,0
2017-04-25T02:50:17.055Z,0
2017-04-25T02:51:27.444Z,0
2017-04-25T02:52:38.071Z,0
2017-04-25T02:53:48.452Z,0
2017-04-25T02:54:58.524Z,0
2017-04-25T02:56:08.590Z,0
2017-04-25T02:57:18.971Z,0
2017-04-25T02:58:29.292Z,0
2017-04-25T02:59:39.061Z,0
2017-04-25T03:00:49.439Z,0
2017-04-25T03:01:59.817Z,0
2017-04-25T03:03:10.200Z,0
2017-04-25T03:04:20.837Z,0
2017-04-25T03:05:31.212Z,0
2017-04-25T03:06:41.598Z,0
2017-04-25T03:07:51.983Z,0
2017-04-25T03:09:02.365Z,0
2017-04-25T03:10:12.994Z,0
2017-04-25T03:11:23.374Z,0
2017-04-25T03:12:33.760Z,0
2017-04-25T03:13:44.384Z,0
2017-04-25T03:14:54.446Z,0
2017-04-25T03:16:05.071Z,0
2017-04-25T03:17:14.840Z,0
2017-04-25T03:18:24.901Z,0
2017-04-25T03:19:35.306Z,0
2017-04-25T03:20:45.055Z,0
2017-04-25T03:21:55.367Z,0
2017-04-25T03:23:05.772Z,0
2017-04-25T03:24:15.830Z,0
2017-04-25T03:25:26.211Z,0
2017-04-25T03:26:36.267Z,0
2017-04-25T03:27:46.899Z,0
2017-04-25T03:28:57.290Z,0
2017-04-25T03:30:07.682Z,0
2017-04-25T03:31:17.756Z,0
2017-04-25T03:32:27.812Z,0
2017-04-25T03:33:38.451Z,0
2017-04-25T03:34:48.529Z,0
2017-04-25T03:35:58.913Z,0
2017-04-25T03:37:08.979Z,0
2017-04-25T03:38:18.733Z,0
2017-04-25T03:39:29.366Z,0
2017-04-25T03:40:39.430Z,0
2017-04-25T03:41:49.805Z,0
2017-04-25T03:43:00.179Z,0
2017-04-25T03:44:10.249Z,0
2017-04-25T03:45:20.552Z,0
2017-04-25T03:46:30.603Z,0
2017-04-25T03:47:40.670Z,0
2017-04-25T03:48:50.742Z,0
2017-04-25T03:50:00.814Z,0
2017-04-25T03:51:11.181Z,0
2017-04-25T03:52:21.562Z,0
2017-04-25T03:53:31.958Z,0
2017-04-25T03:54:42.033Z,0
2017-04-25T03:55:52.413Z,0
2017-04-25T03:57:03.040Z,0
2017-04-25T03:58:13.420Z,0
2017-04-25T03:59:23.523Z,0
2017-04-25T04:00:33.901Z,0
2017-04-25T04:01:44.283Z,0
2017-04-25T04:02:54.966Z,0
2017-04-25T04:04:05.360Z,0
2017-04-25T04:05:15.763Z,0
2017-04-25T04:06:26.154Z,0
2017-04-25T04:07:36.545Z,0
2017-04-25T04:08:47.182Z,0
2017-04-25T04:09:57.570Z,0
2017-04-25T04:11:07.956Z,0
2017-04-25T04:12:17.697Z,0
2017-04-25T04:13:28.076Z,0
2017-04-25T04:14:38.744Z,0
2017-04-25T04:15:48.810Z,5
2017-04-25T04:16:58.876Z,5
2017-04-25T04:18:09.265Z,5
2017-04-25T04:19:19.646Z,5
2017-04-25T04:20:30.333Z,5
2017-04-25T04:21:40.395Z,5
2017-04-25T04:22:50.780Z,5
2017-04-25T04:24:00.864Z,5
2017-04-25T04:25:11.240Z,5
2017-04-25T04:26:21.877Z,5
2017-04-25T04:27:32.284Z,5
2017-04-25T04:28:42.668Z,10
2017-04-25T04:29:52.735Z,10
2017-04-25T04:31:03.123Z,10
2017-04-25T04:32:13.755Z,10
2017-04-25T04:33:24.145Z,10
2017-04-25T04:34:34.211Z,10
2017-04-25T04:35:44.603Z,10
2017-04-25T04:36:54.666Z,10
2017-04-25T04:38:04.985Z,10
2017-04-25T04:39:15.378Z,10
2017-04-25T04:40:25.440Z,10
2017-04-25T04:41:35.815Z,10
2017-04-25T04:42:46.208Z,15
2017-04-25T04:43:56.842Z,15
2017-04-25T04:45:06.596Z,15
2017-04-25T04:46:16.969Z,15
2017-04-25T04:47:27.354Z,15
2017-04-25T04:48:37.743Z,15
2017-04-25T04:49:48.378Z,15
2017-04-25T04:50:58.761Z,15
2017-04-25T04:52:08.502Z,15
2017-04-25T04:53:18.891Z,15
2017-04-25T04:54:29.271Z,15
2017-04-25T04:55:39.907Z,15
2017-04-25T04:56:49.978Z,15
2017-04-25T04:58:00.049Z,15
2017-04-25T04:59:10.447Z,20
2017-04-25T05:00:20.187Z,20
2017-04-25T05:01:30.825Z,15
2017-04-25T05:02:40.929Z,15
2017-04-25T05:03:51.331Z,15
2017-04-25T05:05:01.716Z,15
2017-04-25T05:06:12.102Z,15
2017-04-25T05:07:22.431Z,15
2017-04-25T05:08:32.337Z,15
2017-04-25T05:09:42.080Z,20
2017-04-25T05:10:52.472Z,25
2017-04-25T05:12:02.865Z,25
2017-04-25T05:13:13.493Z,30
2017-04-25T05:14:23.565Z,30
2017-04-25T05:15:33.955Z,30
2017-04-25T05:16:44.337Z,30
2017-04-25T05:17:54.400Z,30
2017-04-25T05:19:05.029Z,30
2017-04-25T05:20:15.097Z,25
2017-04-25T05:21:25.473Z,25
2017-04-25T05:22:35.850Z,25
2017-04-25T05:23:46.246Z,25
2017-04-25T05:24:56.550Z,30
2017-04-25T05:26:06.942Z,25
2017-04-25T05:27:17.317Z,25
2017-04-25T05:28:27.398Z,25
2017-04-25T05:29:37.793Z,25
2017-04-25T05:30:48.474Z,25
2017-04-25T05:31:58.554Z,30
2017-04-25T05:33:08.622Z,25
2017-04-25T05:34:19.001Z,30
2017-04-25T05:35:29.069Z,30
2017-04-25T05:36:39.408Z,30
2017-04-25T05:37:49.789Z,40
2017-04-25T05:39:00.169Z,40
2017-04-25T05:40:09.932Z,40
2017-04-25T05:41:20.321Z,40
2017-04-25T05:42:30.956Z,40
2017-04-25T05:43:41.399Z,40
2017-04-25T05:44:51.473Z,45
2017-04-25T05:46:01.550Z,50
2017-04-25T05:47:11.934Z,50
2017-04-25T05:48:22.631Z,50
2017-04-25T05:49:33.040Z,55
2017-04-25T05:50:43.443Z,55
2017-04-25T05:51:53.829Z,55
2017-04-25T05:53:03.887Z,55
2017-04-25T05:54:14.527Z,55
2017-04-25T05:55:24.933Z,55
2017-04-25T05:56:35.023Z,55
2017-04-25T05:57:45.415Z,60
2017-04-25T05:58:55.482Z,60
2017-04-25T06:00:05.867Z,65
2017-04-25T06:01:16.246Z,65
2017-04-25T06:02:26.636Z,70
2017-04-25T06:03:36.768Z,75
2017-04-25T06:04:46.842Z,80
2017-04-25T06:05:57.167Z,80
2017-04-25T06:07:07.242Z,85
2017-04-25T06:08:17.647Z,85
2017-04-25T06:09:28.084Z,80
2017-04-25T06:10:38.486Z,75
2017-04-25T06:11:48.763Z,70
2017-04-25T06:12:58.787Z,70
2017-04-25T06:14:09.102Z,65
2017-04-25T06:15:19.402Z,65
2017-04-25T06:16:29.446Z,65
2017-04-25T06:17:40.047Z,65
2017-04-25T06:18:50.362Z,70
2017-04-25T06:20:00.651Z,70
2017-04-25T06:21:10.663Z,70
2017-04-25T06:22:20.634Z,75
2017-04-25T06:23:31.224Z,75
2017-04-25T06:24:41.477Z,75
2017-04-25T06:25:51.772Z,70
2017-04-25T06:27:01.781Z,70
2017-04-25T06:28:12.061Z,65
2017-04-25T06:29:22.892Z,70
2017-04-25T06:30:33.192Z,70
2017-04-25T06:31:43.480Z,70
2017-04-25T06:32:53.457Z,75
2017-04-25T06:34:03.756Z,75
2017-04-25T06:35:13.998Z,75
2017-04-25T06:36:24.303Z,80
2017-04-25T06:37:34.614Z,85
2017-04-25T06:38:44.920Z,85
2017-04-25T06:39:55.228Z,90
2017-04-25T06:41:05.844Z,90
2017-04-25T06:42:16.137Z,90
2017-04-25T06:43:26.148Z,90
2017-04-25T06:44:36.462Z,90
2017-04-25T06:45:46.138Z,80
2017-04-25T06:46:56.736Z,80
2017-04-25T06:48:06.430Z,80
2017-04-25T06:49:16.102Z,80
2017-04-25T06:50:26.386Z,85
2017-04-25T06:51:36.693Z,85
2017-04-25T06:52:47.300Z,90
2017-04-25T06:53:57.597Z,95
2017-04-25T06:55:07.579Z,100
2017-04-25T06:56:17.908Z,105
2017-04-25T06:57:28.207Z,115
2017-04-25T06:58:38.888Z,115
2017-04-25T06:59:49.203Z,115
2017-04-25T07:00:59.496Z,115
2017-04-25T07:02:09.477Z,110
2017-04-25T07:03:19.458Z,100
2017-04-25T07:04:30.057Z,90
2017-04-25T07:05:40.356Z,75
2017-04-25T07:06:50.668Z,90
2017-04-25T07:08:00.697Z,90
2017-04-25T07:09:11.110Z,70
2017-04-25T07:10:21.701Z,60
2017-04-25T07:11:31.992Z,60
2017-04-25T07:12:42.294Z,90
2017-04-25T07:13:52.628Z,100
2017-04-25T07:15:02.921Z,60
2017-04-25T07:16:13.171Z,40
2017-04-25T07:17:23.531Z,35
2017-04-25T07:18:33.514Z,45
2017-04-25T07:19:43.804Z,30
2017-04-25T07:20:54.097Z,20
2017-04-25T07:22:04.647Z,30
2017-04-25T07:23:14.654Z,30
2017-04-25T07:24:24.654Z,20
2017-04-25T07:25:34.939Z,30
2017-04-25T07:26:44.932Z,30
2017-04-25T07:27:55.171Z,20
2017-04-25T07:29:05.148Z,15
2017-04-25T07:30:15.465Z,15
2017-04-25T07:31:25.807Z,20
2017-04-25T07:32:35.786Z,20
2017-04-25T07:33:45.717Z,20
2017-04-25T07:34:56.059Z,20
2017-04-25T07:36:06.037Z,20
2017-04-25T07:37:16.058Z,20
2017-04-25T07:38:26.417Z,20
2017-04-25T07:39:36.727Z,25
2017-04-25T07:40:47.039Z,30
2017-04-25T07:41:56.716Z,30
2017-04-25T07:43:07.008Z,30
2017-04-25T07:44:16.985Z,25
2017-04-25T07:45:27.532Z,25
2017-04-25T07:46:37.212Z,25
2017-04-25T07:47:47.196Z,25
2017-04-25T07:48:56.893Z,30
2017-04-25T07:50:06.877Z,35
2017-04-25T07:51:17.117Z,35
2017-04-25T07:52:27.455Z,35
2017-04-25T07:53:37.429Z,45
2017-04-25T07:54:47.731Z,45
2017-04-25T07:55:58.031Z,40
2017-04-25T07:57:08.644Z,40
2017-04-25T07:58:18.951Z,60
2017-04-25T07:59:28.929Z,80
2017-04-25T08:00:39.227Z,30
2017-04-25T08:01:49.536Z,35
2017-04-25T08:03:00.168Z,45
2017-04-25T08:04:10.480Z,30
2017-04-25T08:05:20.813Z,30
2017-04-25T08:06:31.385Z,30
2017-04-25T08:07:41.693Z,30
2017-04-25T08:08:51.957Z,30
2017-04-25T08:10:01.938Z,25
2017-04-25T08:11:12.234Z,30
2017-04-25T08:12:22.530Z,35
2017-04-25T08:13:32.615Z,35
2017-04-25T08:14:43.141Z,40
2017-04-25T08:15:53.466Z,45
2017-04-25T08:17:03.764Z,50
2017-04-25T08:18:13.835Z,55
2017-04-25T08:19:24.123Z,60
2017-04-25T08:20:34.362Z,65
2017-04-25T08:21:44.672Z,65
2017-04-25T08:22:54.984Z,65
2017-04-25T08:24:05.271Z,85
2017-04-25T08:25:15.592Z,80
2017-04-25T08:26:26.198Z,65
2017-04-25T08:27:36.202Z,75
2017-04-25T08:28:45.869Z,85
2017-04-25T08:29:56.182Z,75
2017-04-25T08:31:06.471Z,65
2017-04-25T08:32:17.004Z,65
2017-04-25T08:33:27.294Z,60
2017-04-25T08:34:37.587Z,60
2017-04-25T08:35:47.876Z,55
2017-04-25T08:36:57.863Z,50
2017-04-25T08:38:08.491Z,55
2017-04-25T08:39:18.181Z,60
2017-04-25T08:40:28.497Z,55
2017-04-25T08:41:38.803Z,50
2017-04-25T08:42:48.800Z,45
2017-04-25T08:43:58.772Z,40
2017-04-25T08:45:08.778Z,25
2017-04-25T08:46:18.761Z,20
2017-04-25T08:47:29.049Z,25
2017-04-25T08:48:38.722Z,30
2017-04-25T08:49:48.996Z,30
2017-04-25T08:50:59.286Z,30
2017-04-25T08:52:09.265Z,35
2017-04-25T08:53:19.564Z,35
2017-04-25T08:54:29.881Z,35
2017-04-25T08:55:40.426Z,45
2017-04-25T08:56:50.455Z,45
2017-04-25T08:58:00.762Z,40
2017-04-25T08:59:11.060Z,40
2017-04-25T09:00:21.041Z,45
2017-04-25T09:01:31.350Z,50
2017-04-25T09:02:41.252Z,45
2017-04-25T09:03:51.241Z,55
2017-04-25T09:05:01.581Z,50
2017-04-25T09:06:11.874Z,45
2017-04-25T09:07:22.152Z,50
2017-04-25T09:08:32.463Z,80
2017-04-25T09:09:42.770Z,75
2017-04-25T09:10:52.818Z,85
2017-04-25T09:12:02.513Z,95
2017-04-25T09:13:13.105Z,90
2017-04-25T09:14:23.421Z,85
2017-04-25T09:15:33.403Z,80
2017-04-25T09:16:43.705Z,80
2017-04-25T09:17:54.045Z,90
2017-04-25T09:19:04.292Z,85
2017-04-25T09:20:14.260Z,75
2017-04-25T09:21:23.628Z,85
2017-04-25T09:22:33.934Z,85
2017-04-25T09:23:43.921Z,85
2017-04-25T09:24:54.471Z,95
2017-04-25T09:26:04.163Z,100
2017-04-25T09:27:14.156Z,90
2017-04-25T09:28:24.513Z,70
2017-04-25T09:29:34.822Z,60
2017-04-25T09:30:45.090Z,55
2017-04-25T09:31:55.374Z,75
2017-04-25T09:33:05.437Z,60
2017-04-25T09:34:15.674Z,40
2017-04-25T09:35:25.651Z,75
2017-04-25T09:36:36.254Z,95
2017-04-25T09:37:46.552Z,75
2017-04-25T09:38:56.552Z,100
2017-04-25T09:40:06.518Z,120
2017-04-25T09:41:16.489Z,125
2017-04-25T09:42:27.041Z,85
2017-04-25T09:43:37.988Z,75
2017-04-25T09:44:47.692Z,85
2017-04-25T09:45:58.219Z,80
2017-04-25T09:47:08.207Z,75
2017-04-25T09:48:18.446Z,100
2017-04-25T09:49:28.447Z,90
2017-04-25T09:50:38.419Z,105
2017-04-25T09:51:48.722Z,100
2017-04-25T09:52:59.012Z,110
2017-04-25T09:54:09.635Z,115
2017-04-25T09:55:19.949Z,105
2017-04-25T09:56:30.243Z,130
2017-04-25T09:57:40.582Z,150
2017-04-25T09:58:50.873Z,160
2017-04-25T10:00:01.105Z,150
2017-04-25T10:01:11.459Z,140
2017-04-25T10:02:21.844Z,140
2017-04-25T10:03:32.131Z,135
2017-04-25T10:04:42.116Z,155
2017-04-25T10:05:52.370Z,150
2017-04-25T10:07:02.691Z,145
2017-04-25T10:08:12.996Z,150
2017-04-25T10:09:22.974Z,125
2017-04-25T10:10:33.282Z,135
2017-04-25T10:11:43.822Z,145
2017-04-25T10:12:54.118Z,145
2017-04-25T10:14:04.411Z,140
2017-04-25T10:15:14.392Z,150
2017-04-25T10:16:24.720Z,140
2017-04-25T10:17:34.641Z,130
2017-04-25T10:18:44.950Z,150
2017-04-25T10:19:54.627Z,155
2017-04-25T10:21:04.925Z,145
2017-04-25T10:22:15.212Z,110
2017-04-25T10:23:25.449Z,125
2017-04-25T10:24:35.742Z,145
2017-04-25T10:25:45.728Z,115
2017-04-25T10:26:55.712Z,75
2017-04-25T10:28:06.004Z,85
2017-04-25T10:29:16.609Z,155
2017-04-25T10:30:26.909Z,135
2017-04-25T10:31:36.587Z,110
2017-04-25T10:32:46.898Z,130
2017-04-25T10:33:56.899Z,140
2017-04-25T10:35:07.457Z,150
2017-04-25T10:36:17.780Z,115
2017-04-25T10:37:28.084Z,125
2017-04-25T10:38:38.389Z,155
2017-04-25T10:39:48.371Z,145
2017-04-25T10:40:58.914Z,130
2017-04-25T10:42:09.204Z,90
2017-04-25T10:43:19.495Z,100
2017-04-25T10:44:29.488Z,130
2017-04-25T10:45:39.778Z,135
2017-04-25T10:46:50.318Z,130
2017-04-25T10:48:00.614Z,100
2017-04-25T10:49:10.637Z,110
2017-04-25T10:50:20.919Z,95
2017-04-25T10:51:31.214Z,85
2017-04-25T10:52:41.760Z,105
2017-04-25T10:53:52.074Z,85
2017-04-25T10:55:02.050Z,100
2017-04-25T10:56:12.337Z,115
2017-04-25T10:57:22.655Z,100
2017-04-25T10:58:32.880Z,95
2017-04-25T10:59:43.184Z,85
2017-04-25T11:00:53.490Z,110
2017-04-25T11:02:03.793Z,135
2017-04-25T11:03:14.146Z,120
2017-04-25T11:04:24.397Z,95
2017-04-25T11:05:34.066Z,95
2017-04-25T11:06:43.757Z,115
2017-04-25T11:07:53.416Z,150
2017-04-25T11:09:03.717Z,130
2017-04-25T11:10:14.365Z,130
2017-04-25T11:11:24.694Z,145
2017-04-25T11:12:35.087Z,155
2017-04-25T11:13:45.416Z,140
2017-04-25T11:14:56.045Z,125
2017-04-25T11:16:06.695Z,130
2017-04-25T11:17:16.091Z,145
2017-04-25T11:18:26.431Z,120
2017-04-25T11:19:36.732Z,95
2017-04-25T11:20:47.030Z,120
2017-04-25T11:21:57.063Z,170
2017-04-25T11:23:07.380Z,165
2017-04-25T11:24:17.482Z,160
2017-04-25T11:25:28.099Z,160
2017-04-25T11:26:38.087Z,165
2017-04-25T11:27:48.745Z,170
2017-04-25T11:28:59.049Z,165
2017-04-25T11:30:09.406Z,170
2017-04-25T11:31:19.404Z,155
2017-04-25T11:32:29.716Z,130
2017-04-25T11:33:40.365Z,115
2017-04-25T11:34:50.355Z,100
2017-04-25T11:36:00.361Z,90
2017-04-25T11:37:10.661Z,105
2017-04-25T11:38:20.990Z,115
2017-04-25T11:39:31.643Z,115
2017-04-25T11:40:41.961Z,100
2017-04-25T11:41:52.273Z,95
2017-04-25T11:43:02.580Z,90
2017-04-25T11:44:13.003Z,95
2017-04-25T11:45:23.684Z,75
2017-04-25T11:46:34.022Z,75
2017-04-25T11:47:44.320Z,70
2017-04-25T11:48:54.305Z,55
2017-04-25T11:50:04.604Z,50
2017-04-25T11:51:15.264Z,55
2017-04-25T11:52:25.248Z,75
2017-04-25T11:53:35.569Z,50
2017-04-25T11:54:45.930Z,45
2017-04-25T11:55:56.244Z,65
2017-04-25T11:57:06.566Z,80
2017-04-25T11:58:16.856Z,80
2017-04-25T11:59:27.155Z,70
2017-04-25T12:00:37.153Z,70
2017-04-25T12:01:47.458Z,95
2017-04-25T12:02:58.100Z,95
2017-04-25T12:04:08.088Z,115
2017-04-25T12:05:18.406Z,115
2017-04-25T12:06:28.702Z,120
2017-04-25T12:07:38.727Z,125
2017-04-25T12:08:49.072Z,125
2017-04-25T12:09:59.050Z,105
2017-04-25T12:11:09.344Z,110
2017-04-25T12:12:19.365Z,95
2017-04-25T12:13:29.677Z,105
2017-04-25T12:14:40.325Z,115
2017-04-25T12:15:50.604Z,100
2017-04-25T12:17:00.907Z,70
2017-04-25T12:18:11.210Z,55
2017-04-25T12:19:21.197Z,60
2017-04-25T12:20:31.846Z,95
2017-04-25T12:21:41.819Z,80
2017-04-25T12:22:51.793Z,60
2017-04-25T12:24:02.087Z,65
2017-04-25T12:25:11.754Z,65
2017-04-25T12:26:22.361Z,80
2017-04-25T12:27:32.386Z,95
2017-04-25T12:28:42.733Z,100
2017-04-25T12:29:53.040Z,95
2017-04-25T12:31:03.023Z,85
2017-04-25T12:32:13.688Z,85
2017-04-25T12:33:23.995Z,90
2017-04-25T12:34:34.316Z,75
2017-04-25T12:35:44.002Z,70
2017-04-25T12:36:54.579Z,65
2017-04-25T12:38:04.913Z,95
2017-04-25T12:39:15.221Z,80
2017-04-25T12:40:25.540Z,75
2017-04-25T12:41:35.846Z,75
2017-04-25T12:42:45.835Z,80
2017-04-25T12:43:56.201Z,80
2017-04-25T12:45:06.198Z,75
2017-04-25T12:46:16.539Z,75
2017-04-25T12:47:26.235Z,80
2017-04-25T12:48:36.550Z,75
2017-04-25T12:49:47.203Z,80
2017-04-25T12:50:57.494Z,75
2017-04-25T12:52:07.786Z,75
2017-04-25T12:53:18.085Z,70
2017-04-25T12:54:28.100Z,60
2017-04-25T12:55:38.747Z,55
2017-04-25T12:56:49.059Z,55
2017-04-25T12:57:59.054Z,55
2017-04-25T12:59:09.040Z,55
2017-04-25T13:00:19.271Z,50
2017-04-25T13:01:29.923Z,50
2017-04-25T13:02:40.257Z,50
2017-04-25T13:03:50.547Z,50
2017-04-25T13:05:00.531Z,50
2017-04-25T13:06:10.850Z,55
2017-04-25T13:07:21.567Z,55
2017-04-25T13:08:31.554Z,55
2017-04-25T13:09:41.874Z,50
2017-04-25T13:10:52.163Z,50
2017-04-25T13:12:02.452Z,50
2017-04-25T13:13:13.103Z,50
2017-04-25T13:14:23.398Z,50
2017-04-25T13:15:33.687Z,50
2017-04-25T13:16:43.984Z,60
2017-04-25T13:17:53.974Z,55
2017-04-25T13:19:04.610Z,55
2017-04-25T13:20:14.662Z,60
2017-04-25T13:21:24.953Z,85
2017-04-25T13:22:34.941Z,65
2017-04-25T13:23:44.925Z,60
2017-04-25T13:24:55.262Z,55
2017-04-25T13:26:05.234Z,50
2017-04-25T13:27:15.546Z,85
2017-04-25T13:28:25.850Z,80
2017-04-25T13:29:36.141Z,80
2017-04-25T13:30:46.749Z,90
2017-04-25T13:31:56.413Z,75
2017-04-25T13:33:06.446Z,80
2017-04-25T13:34:16.739Z,95
2017-04-25T13:35:27.030Z,90
2017-04-25T13:36:37.335Z,65
2017-04-25T13:37:47.015Z,90
2017-04-25T13:38:57.309Z,85
2017-04-25T13:40:07.605Z,85
2017-04-25T13:41:16.972Z,85
2017-04-25T13:42:27.623Z,105
2017-04-25T13:43:37.605Z,95
2017-04-25T13:44:47.891Z,75
2017-04-25T13:45:58.199Z,75
2017-04-25T13:47:07.891Z,80
2017-04-25T13:48:18.183Z,90
2017-04-25T13:49:27.543Z,85
2017-04-25T13:50:37.517Z,85
2017-04-25T13:51:47.510Z,85
2017-04-25T13:52:57.821Z,80
2017-04-25T13:54:08.481Z,75
2017-04-25T13:55:18.791Z,85
2017-04-25T13:56:29.104Z,95
2017-04-25T13:57:39.094Z,95
2017-04-25T13:58:49.414Z,100
2017-04-25T14:00:00.011Z,95
2017-04-25T14:01:10.306Z,95
2017-04-25T14:02:20.605Z,85
2017-04-25T14:03:30.911Z,95
2017-04-25T14:04:40.911Z,90
2017-04-25T14:05:51.516Z,85
2017-04-25T14:07:01.809Z,65
2017-04-25T14:08:11.798Z,60
2017-04-25T14:09:21.778Z,75
2017-04-25T14:10:31.752Z,85
2017-04-25T14:11:42.388Z,80
2017-04-25T14:12:52.370Z,85
2017-04-25T14:14:02.376Z,90
2017-04-25T14:15:12.358Z,75
2017-04-25T14:16:22.682Z,70
2017-04-25T14:17:33.325Z,65
2017-04-25T14:18:43.622Z,60
2017-04-25T14:19:53.954Z,65
2017-04-25T14:21:04.237Z,60
2017-04-25T14:22:14.542Z,60
2017-04-25T14:23:25.199Z,55
2017-04-25T14:24:34.901Z,60
2017-04-25T14:25:45.202Z,60
2017-04-25T14:26:55.502Z,65
2017-04-25T14:28:05.798Z,80
2017-04-25T14:29:16.415Z,80
2017-04-25T14:30:26.417Z,75
2017-04-25T14:31:36.728Z,70
2017-04-25T14:32:47.017Z,80
2017-04-25T14:33:57.008Z,85
2017-04-25T14:35:07.337Z,75
2017-04-25T14:36:17.620Z,75
2017-04-25T14:37:27.608Z,75
2017-04-25T14:38:37.591Z,70
2017-04-25T14:39:47.569Z,70
2017-04-25T14:40:58.218Z,75
2017-04-25T14:42:08.527Z,70
2017-04-25T14:43:18.835Z,70
2017-04-25T14:44:29.114Z,75
2017-04-25T14:45:39.409Z,80
2017-04-25T14:46:49.680Z,80
2017-04-25T14:47:59.991Z,85
2017-04-25T14:49:09.982Z,85
2017-04-25T14:50:20.281Z,85
2017-04-25T14:51:30.571Z,80
2017-04-25T14:52:41.223Z,80
2017-04-25T14:53:51.530Z,80
2017-04-25T14:55:01.845Z,80
2017-04-25T14:56:11.834Z,80
2017-04-25T14:57:22.116Z,85
2017-04-25T14:58:32.494Z,80
2017-04-25T14:59:42.783Z,85
2017-04-25T15:00:52.755Z,80
2017-04-25T15:02:03.075Z,80
2017-04-25T15:03:13.062Z,80
2017-04-25T15:04:23.665Z,75
2017-04-25T15:05:33.643Z,75
2017-04-25T15:06:43.959Z,75
2017-04-25T15:07:54.256Z,75
2017-04-25T15:09:04.244Z,75
2017-04-25T15:10:14.598Z,75
2017-04-25T15:11:24.908Z,80
2017-04-25T15:12:35.205Z,75
2017-04-25T15:13:45.496Z,75
2017-04-25T15:14:55.790Z,70
2017-04-25T15:16:06.129Z,70
2017-04-25T15:17:16.423Z,65
2017-04-25T15:18:26.416Z,60
2017-04-25T15:19:36.740Z,60
2017-04-25T15:20:46.715Z,65
2017-04-25T15:21:57.366Z,60
2017-04-25T15:23:07.670Z,60
2017-04-25T15:24:17.995Z,55
2017-04-25T15:25:28.311Z,55
2017-04-25T15:26:38.615Z,50
2017-04-25T15:27:49.278Z,45
2017-04-25T15:28:59.285Z,45
2017-04-25T15:30:09.284Z,40
2017-04-25T15:31:19.608Z,35
2017-04-25T15:32:29.897Z,30
2017-04-25T15:33:40.262Z,40
2017-04-25T15:34:50.248Z,50
2017-04-25T15:36:00.237Z,55
2017-04-25T15:37:10.230Z,55
2017-04-25T15:38:20.545Z,50
2017-04-25T15:39:30.829Z,55
2017-04-25T15:40:40.496Z,50
2017-04-25T15:41:50.793Z,45
2017-04-25T15:43:00.794Z,45
2017-04-25T15:44:10.790Z,50
2017-04-25T15:45:21.447Z,55
2017-04-25T15:46:31.730Z,50
2017-04-25T15:47:41.717Z,45
2017-04-25T15:48:51.706Z,50
2017-04-25T15:50:02.048Z,55
2017-04-25T15:51:12.670Z,65
2017-04-25T15:52:22.975Z,70
2017-04-25T15:53:33.276Z,75
2017-04-25T15:54:42.951Z,75
2017-04-25T15:55:52.943Z,70
2017-04-25T15:57:03.605Z,60
2017-04-25T15:58:13.914Z,55
2017-04-25T15:59:24.217Z,50
2017-04-25T16:00:33.898Z,45
2017-04-25T16:01:44.182Z,45
2017-04-25T16:02:54.856Z,45
2017-04-25T16:04:04.862Z,45
2017-04-25T16:05:14.870Z,45
2017-04-25T16:06:24.854Z,45
2017-04-25T16:07:35.173Z,45
2017-04-25T16:08:45.194Z,45
2017-04-25T16:09:54.905Z,45
2017-04-25T16:11:05.212Z,50
2017-04-25T16:12:15.221Z,50
2017-04-25T16:13:25.561Z,50
2017-04-25T16:14:35.861Z,50
2017-04-25T16:15:45.554Z,50
2017-04-25T16:16:55.548Z,55
2017-04-25T16:18:05.577Z,55
2017-04-25T16:19:15.597Z,55
2017-04-25T16:20:25.980Z,50
2017-04-25T16:21:36.304Z,45
2017-04-25T16:22:45.988Z,45
2017-04-25T16:23:56.006Z,45
2017-04-25T16:25:06.353Z,40
2017-04-25T16:26:16.975Z,35
2017-04-25T16:27:26.655Z,30
2017-04-25T16:28:36.683Z,30
2017-04-25T16:29:47.024Z,30
2017-04-25T16:30:57.353Z,30
2017-04-25T16:32:07.648Z,30
2017-04-25T16:33:18.003Z,30
2017-04-25T16:34:28.357Z,30
2017-04-25T16:35:38.701Z,30
2017-04-25T16:36:49.021Z,30
2017-04-25T16:37:59.671Z,25
2017-04-25T16:39:09.683Z,25
2017-04-25T16:40:20.000Z,25
2017-04-25T16:41:30.390Z,30
2017-04-25T16:42:40.703Z,30
2017-04-25T16:43:51.028Z,30
2017-04-25T16:45:01.351Z,30
2017-04-25T16:46:11.383Z,30